sensor_id;sensor_type;location;lat;lon;timestamp;P1;durP1;ratioP1;P2;durP2;ratioP2
78416;SDS011;67715;46.170;6.140;2023-03-16T00:01:55;3.67;;;2.65;;
78416;SDS011;67715;46.170;6.140;2023-03-16T00:07:29;4.00;;;2.70;;
78416;SDS011;67715;46.170;6.140;2023-03-16T00:10:15;5.18;;;2.20;;
78416;SDS011;67715;46.170;6.140;2023-03-16T00:12:41;4.38;;;2.42;;
78416;SDS011;67715;46.170;6.140;2023-03-16T00:15:14;4.20;;;2.70;;
78416;SDS011;67715;46.170;6.140;2023-03-16T00:17:48;5.18;;;2.50;;
78416;SDS011;67715;46.170;6.140;2023-03-16T00:20:17;3.15;;;2.20;;
78416;SDS011;67715;46.170;6.140;2023-03-16T00:22:51;4.90;;;2.92;;
78416;SDS011;67715;46.170;6.140;2023-03-16T00:25:19;3.90;;;2.50;;
78416;SDS011;67715;46.170;6.140;2023-03-16T00:27:53;3.63;;;2.40;;
78416;SDS011;67715;46.170;6.140;2023-03-16T00:30:27;5.28;;;2.80;;
78416;SDS011;67715;46.170;6.140;2023-03-16T00:35:22;6.13;;;2.45;;
78416;SDS011;67715;46.170;6.140;2023-03-16T00:37:48;5.50;;;2.95;;
78416;SDS011;67715;46.170;6.140;2023-03-16T00:40:19;6.45;;;2.60;;
78416;SDS011;67715;46.170;6.140;2023-03-16T00:42:48;4.57;;;2.42;;
78416;SDS011;67715;46.170;6.140;2023-03-16T00:45:18;5.13;;;3.03;;
78416;SDS011;67715;46.170;6.140;2023-03-16T00:47:51;6.25;;;3.05;;
78416;SDS011;67715;46.170;6.140;2023-03-16T00:50:47;7.55;;;2.65;;
78416;SDS011;67715;46.170;6.140;2023-03-16T00:53:36;3.53;;;2.35;;
78416;SDS011;67715;46.170;6.140;2023-03-16T00:56:31;3.10;;;2.50;;
78416;SDS011;67715;46.170;6.140;2023-03-16T00:58:59;4.97;;;2.70;;
78416;SDS011;67715;46.170;6.140;2023-03-16T01:01:39;4.95;;;2.67;;
78416;SDS011;67715;46.170;6.140;2023-03-16T01:04:45;3.97;;;3.00;;
78416;SDS011;67715;46.170;6.140;2023-03-16T01:07:21;5.40;;;2.85;;
78416;SDS011;67715;46.170;6.140;2023-03-16T01:10:10;3.08;;;2.65;;
78416;SDS011;67715;46.170;6.140;2023-03-16T01:16:17;3.28;;;2.90;;
78416;SDS011;67715;46.170;6.140;2023-03-16T01:19:00;3.03;;;2.33;;
78416;SDS011;67715;46.170;6.140;2023-03-16T01:24:26;5.82;;;2.80;;
78416;SDS011;67715;46.170;6.140;2023-03-16T01:27:26;4.75;;;2.53;;
78416;SDS011;67715;46.170;6.140;2023-03-16T01:30:02;3.58;;;2.30;;
78416;SDS011;67715;46.170;6.140;2023-03-16T01:32:29;3.47;;;2.55;;
78416;SDS011;67715;46.170;6.140;2023-03-16T01:35:13;4.22;;;3.00;;
78416;SDS011;67715;46.170;6.140;2023-03-16T01:37:41;4.50;;;2.67;;
78416;SDS011;67715;46.170;6.140;2023-03-16T01:40:42;4.22;;;3.03;;
78416;SDS011;67715;46.170;6.140;2023-03-16T01:43:34;5.60;;;2.75;;
78416;SDS011;67715;46.170;6.140;2023-03-16T01:46:24;3.78;;;2.22;;
78416;SDS011;67715;46.170;6.140;2023-03-16T02:00:29;3.38;;;2.55;;
78416;SDS011;67715;46.170;6.140;2023-03-16T02:03:46;5.00;;;2.65;;
78416;SDS011;67715;46.170;6.140;2023-03-16T02:09:56;3.83;;;2.25;;
78416;SDS011;67715;46.170;6.140;2023-03-16T02:13:08;3.38;;;2.25;;
78416;SDS011;67715;46.170;6.140;2023-03-16T02:16:11;2.65;;;1.83;;
78416;SDS011;67715;46.170;6.140;2023-03-16T02:19:28;3.08;;;2.40;;
78416;SDS011;67715;46.170;6.140;2023-03-16T02:22:57;5.15;;;1.73;;
78416;SDS011;67715;46.170;6.140;2023-03-16T02:32:51;2.53;;;1.58;;
78416;SDS011;67715;46.170;6.140;2023-03-16T02:35:54;4.63;;;1.85;;
78416;SDS011;67715;46.170;6.140;2023-03-16T02:38:56;4.70;;;2.13;;
78416;SDS011;67715;46.170;6.140;2023-03-16T02:51:17;1.85;;;1.25;;
78416;SDS011;67715;46.170;6.140;2023-03-16T02:59:52;2.58;;;1.33;;
78416;SDS011;67715;46.170;6.140;2023-03-16T03:02:31;3.40;;;1.70;;
78416;SDS011;67715;46.170;6.140;2023-03-16T03:05:17;3.85;;;1.63;;
78416;SDS011;67715;46.170;6.140;2023-03-16T03:07:59;2.70;;;1.45;;
78416;SDS011;67715;46.170;6.140;2023-03-16T03:10:48;2.70;;;1.52;;
78416;SDS011;67715;46.170;6.140;2023-03-16T03:16:46;1.95;;;1.20;;
78416;SDS011;67715;46.170;6.140;2023-03-16T03:20:05;1.50;;;1.25;;
78416;SDS011;67715;46.170;6.140;2023-03-16T03:22:56;3.33;;;1.20;;
78416;SDS011;67715;46.170;6.140;2023-03-16T03:25:29;1.92;;;1.20;;
78416;SDS011;67715;46.170;6.140;2023-03-16T03:28:14;1.95;;;1.20;;
78416;SDS011;67715;46.170;6.140;2023-03-16T03:30:49;2.25;;;1.30;;
78416;SDS011;67715;46.170;6.140;2023-03-16T03:34:04;2.85;;;1.52;;
78416;SDS011;67715;46.170;6.140;2023-03-16T03:47:04;2.53;;;1.55;;
78416;SDS011;67715;46.170;6.140;2023-03-16T03:49:57;2.22;;;1.20;;
78416;SDS011;67715;46.170;6.140;2023-03-16T03:52:54;1.63;;;1.20;;
78416;SDS011;67715;46.170;6.140;2023-03-16T03:55:46;1.95;;;1.40;;
78416;SDS011;67715;46.170;6.140;2023-03-16T03:58:27;2.88;;;1.30;;
78416;SDS011;67715;46.170;6.140;2023-03-16T04:04:13;2.13;;;1.40;;
78416;SDS011;67715;46.170;6.140;2023-03-16T04:07:19;2.10;;;1.10;;
78416;SDS011;67715;46.170;6.140;2023-03-16T04:17:03;1.73;;;1.40;;
78416;SDS011;67715;46.170;6.140;2023-03-16T04:20:02;2.92;;;1.33;;
78416;SDS011;67715;46.170;6.140;2023-03-16T04:26:40;2.53;;;1.48;;
78416;SDS011;67715;46.170;6.140;2023-03-16T04:38:12;2.92;;;1.27;;
78416;SDS011;67715;46.170;6.140;2023-03-16T04:40:52;3.30;;;1.80;;
78416;SDS011;67715;46.170;6.140;2023-03-16T04:43:48;2.28;;;1.50;;
78416;SDS011;67715;46.170;6.140;2023-03-16T04:46:21;2.65;;;1.30;;
78416;SDS011;67715;46.170;6.140;2023-03-16T04:48:53;2.95;;;2.03;;
78416;SDS011;67715;46.170;6.140;2023-03-16T04:54:11;2.38;;;1.60;;
78416;SDS011;67715;46.170;6.140;2023-03-16T04:57:08;2.72;;;1.83;;
78416;SDS011;67715;46.170;6.140;2023-03-16T05:03:23;3.58;;;2.40;;
78416;SDS011;67715;46.170;6.140;2023-03-16T05:06:42;3.25;;;2.35;;
78416;SDS011;67715;46.170;6.140;2023-03-16T05:09:33;3.10;;;2.22;;
78416;SDS011;67715;46.170;6.140;2023-03-16T05:15:32;4.35;;;2.72;;
78416;SDS011;67715;46.170;6.140;2023-03-16T05:21:34;2.22;;;1.92;;
78416;SDS011;67715;46.170;6.140;2023-03-16T05:24:28;3.05;;;1.83;;
78416;SDS011;67715;46.170;6.140;2023-03-16T05:27:13;6.57;;;1.65;;
78416;SDS011;67715;46.170;6.140;2023-03-16T05:30:14;3.00;;;2.33;;
78416;SDS011;67715;46.170;6.140;2023-03-16T05:33:08;4.13;;;1.98;;
78416;SDS011;67715;46.170;6.140;2023-03-16T05:39:13;6.70;;;3.22;;
78416;SDS011;67715;46.170;6.140;2023-03-16T05:42:09;3.80;;;2.72;;
78416;SDS011;67715;46.170;6.140;2023-03-16T05:44:41;3.92;;;2.60;;
78416;SDS011;67715;46.170;6.140;2023-03-16T05:47:33;4.75;;;2.97;;
78416;SDS011;67715;46.170;6.140;2023-03-16T05:50:18;4.22;;;3.28;;
78416;SDS011;67715;46.170;6.140;2023-03-16T05:55:50;4.72;;;2.60;;
78416;SDS011;67715;46.170;6.140;2023-03-16T05:58:39;3.47;;;2.45;;
78416;SDS011;67715;46.170;6.140;2023-03-16T06:01:27;3.55;;;2.88;;
78416;SDS011;67715;46.170;6.140;2023-03-16T06:04:09;4.93;;;2.60;;
78416;SDS011;67715;46.170;6.140;2023-03-16T06:07:38;6.18;;;2.55;;
78416;SDS011;67715;46.170;6.140;2023-03-16T06:10:23;4.28;;;2.95;;
78416;SDS011;67715;46.170;6.140;2023-03-16T06:13:01;3.55;;;2.38;;
78416;SDS011;67715;46.170;6.140;2023-03-16T06:16:10;3.67;;;2.72;;
78416;SDS011;67715;46.170;6.140;2023-03-16T06:19:06;4.03;;;2.78;;
78416;SDS011;67715;46.170;6.140;2023-03-16T06:21:45;2.90;;;2.10;;
78416;SDS011;67715;46.170;6.140;2023-03-16T06:24:28;3.55;;;2.00;;
78416;SDS011;67715;46.170;6.140;2023-03-16T06:27:22;3.05;;;2.28;;
78416;SDS011;67715;46.170;6.140;2023-03-16T06:30:09;2.83;;;2.00;;
78416;SDS011;67715;46.170;6.140;2023-03-16T06:33:19;2.55;;;1.90;;
78416;SDS011;67715;46.170;6.140;2023-03-16T06:36:34;4.22;;;2.70;;
78416;SDS011;67715;46.170;6.140;2023-03-16T06:39:04;4.10;;;2.30;;
78416;SDS011;67715;46.170;6.140;2023-03-16T06:41:55;6.65;;;2.97;;
78416;SDS011;67715;46.170;6.140;2023-03-16T06:44:29;8.05;;;3.78;;
78416;SDS011;67715;46.170;6.140;2023-03-16T06:47:03;5.32;;;2.80;;
78416;SDS011;67715;46.170;6.140;2023-03-16T06:49:35;5.72;;;2.95;;
78416;SDS011;67715;46.170;6.140;2023-03-16T06:52:18;3.88;;;2.90;;
78416;SDS011;67715;46.170;6.140;2023-03-16T06:54:53;4.53;;;2.90;;
78416;SDS011;67715;46.170;6.140;2023-03-16T06:57:21;4.95;;;3.25;;
78416;SDS011;67715;46.170;6.140;2023-03-16T07:00:59;4.45;;;2.95;;
78416;SDS011;67715;46.170;6.140;2023-03-16T07:06:34;6.18;;;3.10;;
78416;SDS011;67715;46.170;6.140;2023-03-16T07:09:07;4.72;;;3.15;;
78416;SDS011;67715;46.170;6.140;2023-03-16T07:14:40;4.43;;;3.33;;
78416;SDS011;67715;46.170;6.140;2023-03-16T07:23:07;6.57;;;2.90;;
78416;SDS011;67715;46.170;6.140;2023-03-16T07:25:49;5.75;;;3.63;;
78416;SDS011;67715;46.170;6.140;2023-03-16T07:28:23;6.40;;;3.83;;
78416;SDS011;67715;46.170;6.140;2023-03-16T07:31:23;7.80;;;3.58;;
78416;SDS011;67715;46.170;6.140;2023-03-16T07:33:51;6.60;;;3.40;;
78416;SDS011;67715;46.170;6.140;2023-03-16T07:36:28;6.85;;;3.97;;
78416;SDS011;67715;46.170;6.140;2023-03-16T07:38:56;5.07;;;3.60;;
78416;SDS011;67715;46.170;6.140;2023-03-16T07:41:22;8.40;;;3.80;;
78416;SDS011;67715;46.170;6.140;2023-03-16T07:44:18;9.15;;;4.05;;
78416;SDS011;67715;46.170;6.140;2023-03-16T07:49:16;7.30;;;4.22;;
78416;SDS011;67715;46.170;6.140;2023-03-16T07:52:13;8.00;;;3.92;;
78416;SDS011;67715;46.170;6.140;2023-03-16T07:57:30;8.10;;;4.53;;
78416;SDS011;67715;46.170;6.140;2023-03-16T08:03:38;5.68;;;3.42;;
78416;SDS011;67715;46.170;6.140;2023-03-16T08:06:04;5.38;;;3.60;;
78416;SDS011;67715;46.170;6.140;2023-03-16T08:11:27;5.93;;;3.08;;
78416;SDS011;67715;46.170;6.140;2023-03-16T08:13:52;5.10;;;3.53;;
78416;SDS011;67715;46.170;6.140;2023-03-16T08:16:20;4.15;;;3.50;;
78416;SDS011;67715;46.170;6.140;2023-03-16T08:18:46;6.13;;;3.85;;
78416;SDS011;67715;46.170;6.140;2023-03-16T08:21:13;3.15;;;2.47;;
78416;SDS011;67715;46.170;6.140;2023-03-16T08:23:39;3.22;;;2.13;;
78416;SDS011;67715;46.170;6.140;2023-03-16T08:26:22;5.07;;;3.20;;
78416;SDS011;67715;46.170;6.140;2023-03-16T08:28:53;7.40;;;2.83;;
78416;SDS011;67715;46.170;6.140;2023-03-16T08:31:22;6.05;;;2.67;;
78416;SDS011;67715;46.170;6.140;2023-03-16T08:33:49;3.63;;;1.90;;
78416;SDS011;67715;46.170;6.140;2023-03-16T08:36:16;2.78;;;1.80;;
78416;SDS011;67715;46.170;6.140;2023-03-16T08:38:42;3.42;;;2.28;;
78416;SDS011;67715;46.170;6.140;2023-03-16T08:41:08;4.22;;;2.20;;
78416;SDS011;67715;46.170;6.140;2023-03-16T08:43:38;3.75;;;2.28;;
78416;SDS011;67715;46.170;6.140;2023-03-16T08:46:04;4.35;;;1.90;;
78416;SDS011;67715;46.170;6.140;2023-03-16T08:48:30;4.20;;;2.40;;
78416;SDS011;67715;46.170;6.140;2023-03-16T08:51:00;2.08;;;1.88;;
78416;SDS011;67715;46.170;6.140;2023-03-16T08:53:34;6.78;;;2.55;;
78416;SDS011;67715;46.170;6.140;2023-03-16T08:56:06;3.42;;;2.78;;
78416;SDS011;67715;46.170;6.140;2023-03-16T08:58:33;4.40;;;2.40;;
78416;SDS011;67715;46.170;6.140;2023-03-16T09:01:00;6.15;;;2.78;;
78416;SDS011;67715;46.170;6.140;2023-03-16T09:03:29;6.38;;;2.88;;
78416;SDS011;67715;46.170;6.140;2023-03-16T09:05:59;3.53;;;2.30;;
78416;SDS011;67715;46.170;6.140;2023-03-16T09:08:26;3.50;;;2.60;;
78416;SDS011;67715;46.170;6.140;2023-03-16T09:10:57;5.45;;;2.63;;
78416;SDS011;67715;46.170;6.140;2023-03-16T09:13:34;4.55;;;2.35;;
78416;SDS011;67715;46.170;6.140;2023-03-16T09:16:00;3.10;;;2.70;;
78416;SDS011;67715;46.170;6.140;2023-03-16T09:18:25;5.75;;;2.53;;
78416;SDS011;67715;46.170;6.140;2023-03-16T09:20:51;2.50;;;2.28;;
78416;SDS011;67715;46.170;6.140;2023-03-16T09:23:21;6.38;;;2.50;;
78416;SDS011;67715;46.170;6.140;2023-03-16T09:25:47;2.50;;;2.15;;
78416;SDS011;67715;46.170;6.140;2023-03-16T09:28:12;5.53;;;2.50;;
78416;SDS011;67715;46.170;6.140;2023-03-16T09:30:38;2.67;;;2.40;;
78416;SDS011;67715;46.170;6.140;2023-03-16T09:33:03;4.43;;;2.70;;
78416;SDS011;67715;46.170;6.140;2023-03-16T09:35:29;4.47;;;2.85;;
78416;SDS011;67715;46.170;6.140;2023-03-16T09:37:56;9.32;;;2.97;;
78416;SDS011;67715;46.170;6.140;2023-03-16T09:40:22;8.02;;;2.85;;
78416;SDS011;67715;46.170;6.140;2023-03-16T09:48:04;4.88;;;2.00;;
78416;SDS011;67715;46.170;6.140;2023-03-16T09:50:31;3.33;;;2.20;;
78416;SDS011;67715;46.170;6.140;2023-03-16T09:53:00;4.22;;;2.38;;
78416;SDS011;67715;46.170;6.140;2023-03-16T09:55:32;3.60;;;2.08;;
78416;SDS011;67715;46.170;6.140;2023-03-16T09:57:59;3.58;;;1.50;;
78416;SDS011;67715;46.170;6.140;2023-03-16T10:00:26;3.70;;;2.03;;
78416;SDS011;67715;46.170;6.140;2023-03-16T10:05:41;4.53;;;2.13;;
78416;SDS011;67715;46.170;6.140;2023-03-16T10:08:21;4.63;;;2.13;;
78416;SDS011;67715;46.170;6.140;2023-03-16T10:11:02;3.85;;;3.15;;
78416;SDS011;67715;46.170;6.140;2023-03-16T10:16:41;3.22;;;2.38;;
78416;SDS011;67715;46.170;6.140;2023-03-16T10:19:15;4.05;;;2.40;;
78416;SDS011;67715;46.170;6.140;2023-03-16T10:21:42;5.13;;;2.70;;
78416;SDS011;67715;46.170;6.140;2023-03-16T10:24:14;3.95;;;2.50;;
78416;SDS011;67715;46.170;6.140;2023-03-16T10:26:49;3.85;;;2.47;;
78416;SDS011;67715;46.170;6.140;2023-03-16T10:29:24;3.45;;;2.30;;
78416;SDS011;67715;46.170;6.140;2023-03-16T10:31:53;4.97;;;2.05;;
78416;SDS011;67715;46.170;6.140;2023-03-16T10:34:20;5.25;;;2.38;;
78416;SDS011;67715;46.170;6.140;2023-03-16T10:36:45;3.80;;;2.20;;
78416;SDS011;67715;46.170;6.140;2023-03-16T10:39:12;3.28;;;2.05;;
78416;SDS011;67715;46.170;6.140;2023-03-16T10:41:39;5.72;;;2.88;;
78416;SDS011;67715;46.170;6.140;2023-03-16T10:44:14;7.32;;;3.00;;
78416;SDS011;67715;46.170;6.140;2023-03-16T10:49:45;4.75;;;1.85;;
78416;SDS011;67715;46.170;6.140;2023-03-16T10:54:48;4.47;;;2.35;;
78416;SDS011;67715;46.170;6.140;2023-03-16T10:59:47;4.25;;;2.42;;
78416;SDS011;67715;46.170;6.140;2023-03-16T11:02:17;2.50;;;1.88;;
78416;SDS011;67715;46.170;6.140;2023-03-16T11:04:46;5.03;;;2.03;;
78416;SDS011;67715;46.170;6.140;2023-03-16T11:07:20;5.30;;;2.28;;
78416;SDS011;67715;46.170;6.140;2023-03-16T11:09:49;3.75;;;2.33;;
78416;SDS011;67715;46.170;6.140;2023-03-16T11:12:20;5.47;;;2.33;;
78416;SDS011;67715;46.170;6.140;2023-03-16T11:14:51;7.30;;;2.10;;
78416;SDS011;67715;46.170;6.140;2023-03-16T11:17:20;3.15;;;2.15;;
78416;SDS011;67715;46.170;6.140;2023-03-16T11:19:53;5.47;;;1.90;;
78416;SDS011;67715;46.170;6.140;2023-03-16T11:22:25;5.15;;;2.22;;
78416;SDS011;67715;46.170;6.140;2023-03-16T11:24:52;3.95;;;1.95;;
78416;SDS011;67715;46.170;6.140;2023-03-16T11:30:30;5.60;;;2.22;;
78416;SDS011;67715;46.170;6.140;2023-03-16T11:32:39;3.47;;;2.15;;
78416;SDS011;67715;46.170;6.140;2023-03-16T11:35:11;3.65;;;2.13;;
78416;SDS011;67715;46.170;6.140;2023-03-16T11:37:47;3.92;;;2.30;;
78416;SDS011;67715;46.170;6.140;2023-03-16T11:40:23;4.35;;;1.90;;
78416;SDS011;67715;46.170;6.140;2023-03-16T11:45:43;3.30;;;1.83;;
78416;SDS011;67715;46.170;6.140;2023-03-16T11:59:10;2.33;;;1.73;;
78416;SDS011;67715;46.170;6.140;2023-03-16T12:02:03;3.17;;;1.77;;
78416;SDS011;67715;46.170;6.140;2023-03-16T12:05:08;3.33;;;1.90;;
78416;SDS011;67715;46.170;6.140;2023-03-16T12:08:03;3.80;;;2.03;;
78416;SDS011;67715;46.170;6.140;2023-03-16T12:16:08;6.90;;;2.88;;
78416;SDS011;67715;46.170;6.140;2023-03-16T12:18:46;3.83;;;2.08;;
78416;SDS011;67715;46.170;6.140;2023-03-16T12:21:23;3.95;;;1.98;;
78416;SDS011;67715;46.170;6.140;2023-03-16T12:23:51;5.78;;;2.38;;
78416;SDS011;67715;46.170;6.140;2023-03-16T12:26:25;3.95;;;1.80;;
78416;SDS011;67715;46.170;6.140;2023-03-16T12:28:55;4.15;;;2.00;;
78416;SDS011;67715;46.170;6.140;2023-03-16T12:31:32;3.30;;;1.95;;
78416;SDS011;67715;46.170;6.140;2023-03-16T12:34:04;9.07;;;2.60;;
78416;SDS011;67715;46.170;6.140;2023-03-16T12:36:44;2.30;;;1.70;;
78416;SDS011;67715;46.170;6.140;2023-03-16T12:42:35;3.42;;;1.88;;
78416;SDS011;67715;46.170;6.140;2023-03-16T12:45:29;5.18;;;1.90;;
78416;SDS011;67715;46.170;6.140;2023-03-16T12:50:51;3.88;;;1.92;;
78416;SDS011;67715;46.170;6.140;2023-03-16T12:53:26;3.83;;;2.33;;
78416;SDS011;67715;46.170;6.140;2023-03-16T12:59:02;3.22;;;2.35;;
78416;SDS011;67715;46.170;6.140;2023-03-16T13:01:35;3.95;;;2.58;;
78416;SDS011;67715;46.170;6.140;2023-03-16T13:04:07;3.63;;;2.50;;
78416;SDS011;67715;46.170;6.140;2023-03-16T13:06:36;5.13;;;2.35;;
78416;SDS011;67715;46.170;6.140;2023-03-16T13:09:07;6.43;;;2.03;;
78416;SDS011;67715;46.170;6.140;2023-03-16T13:11:46;3.90;;;2.20;;
78416;SDS011;67715;46.170;6.140;2023-03-16T13:17:31;5.03;;;2.45;;
78416;SDS011;67715;46.170;6.140;2023-03-16T13:22:42;3.95;;;2.30;;
78416;SDS011;67715;46.170;6.140;2023-03-16T13:25:34;4.55;;;2.60;;
78416;SDS011;67715;46.170;6.140;2023-03-16T13:28:04;3.67;;;2.00;;
78416;SDS011;67715;46.170;6.140;2023-03-16T13:30:31;4.85;;;2.25;;
78416;SDS011;67715;46.170;6.140;2023-03-16T13:33:04;3.38;;;2.03;;
78416;SDS011;67715;46.170;6.140;2023-03-16T13:35:50;3.88;;;2.28;;
78416;SDS011;67715;46.170;6.140;2023-03-16T13:38:19;5.57;;;2.08;;
78416;SDS011;67715;46.170;6.140;2023-03-16T13:40:51;3.63;;;2.65;;
78416;SDS011;67715;46.170;6.140;2023-03-16T13:43:20;5.20;;;2.28;;
78416;SDS011;67715;46.170;6.140;2023-03-16T13:45:47;3.40;;;1.80;;
78416;SDS011;67715;46.170;6.140;2023-03-16T13:48:13;2.75;;;1.80;;
78416;SDS011;67715;46.170;6.140;2023-03-16T13:50:40;4.38;;;2.35;;
78416;SDS011;67715;46.170;6.140;2023-03-16T13:53:49;4.32;;;2.22;;
78416;SDS011;67715;46.170;6.140;2023-03-16T13:55:57;2.70;;;1.85;;
78416;SDS011;67715;46.170;6.140;2023-03-16T13:58:31;4.20;;;2.35;;
78416;SDS011;67715;46.170;6.140;2023-03-16T14:00:59;4.93;;;2.20;;
78416;SDS011;67715;46.170;6.140;2023-03-16T14:03:33;4.03;;;2.35;;
78416;SDS011;67715;46.170;6.140;2023-03-16T14:06:03;5.10;;;2.17;;
78416;SDS011;67715;46.170;6.140;2023-03-16T14:08:32;2.88;;;2.15;;
78416;SDS011;67715;46.170;6.140;2023-03-16T14:10:58;13.77;;;2.72;;
78416;SDS011;67715;46.170;6.140;2023-03-16T14:15:53;5.03;;;2.33;;
78416;SDS011;67715;46.170;6.140;2023-03-16T14:18:21;7.03;;;2.22;;
78416;SDS011;67715;46.170;6.140;2023-03-16T14:20:50;3.72;;;2.10;;
78416;SDS011;67715;46.170;6.140;2023-03-16T14:23:21;6.40;;;2.40;;
78416;SDS011;67715;46.170;6.140;2023-03-16T14:28:18;4.53;;;2.28;;
78416;SDS011;67715;46.170;6.140;2023-03-16T14:30:49;3.00;;;2.03;;
78416;SDS011;67715;46.170;6.140;2023-03-16T14:33:26;4.68;;;2.47;;
78416;SDS011;67715;46.170;6.140;2023-03-16T14:35:57;5.32;;;2.15;;
78416;SDS011;67715;46.170;6.140;2023-03-16T14:38:32;5.88;;;2.42;;
78416;SDS011;67715;46.170;6.140;2023-03-16T14:41:04;4.70;;;2.10;;
78416;SDS011;67715;46.170;6.140;2023-03-16T14:43:33;3.03;;;2.03;;
78416;SDS011;67715;46.170;6.140;2023-03-16T14:46:05;5.13;;;2.50;;
78416;SDS011;67715;46.170;6.140;2023-03-16T14:48:31;4.78;;;2.15;;
78416;SDS011;67715;46.170;6.140;2023-03-16T14:50:58;6.57;;;2.67;;
78416;SDS011;67715;46.170;6.140;2023-03-16T14:53:25;3.88;;;2.53;;
78416;SDS011;67715;46.170;6.140;2023-03-16T14:55:53;4.50;;;2.45;;
78416;SDS011;67715;46.170;6.140;2023-03-16T14:58:18;5.47;;;2.65;;
78416;SDS011;67715;46.170;6.140;2023-03-16T15:00:44;3.20;;;1.85;;
78416;SDS011;67715;46.170;6.140;2023-03-16T15:03:10;2.65;;;1.92;;
78416;SDS011;67715;46.170;6.140;2023-03-16T15:05:38;5.32;;;2.30;;
78416;SDS011;67715;46.170;6.140;2023-03-16T15:08:06;2.83;;;2.08;;
78416;SDS011;67715;46.170;6.140;2023-03-16T15:10:35;7.07;;;2.70;;
78416;SDS011;67715;46.170;6.140;2023-03-16T15:13:01;5.45;;;2.03;;
78416;SDS011;67715;46.170;6.140;2023-03-16T15:15:37;3.53;;;1.95;;
78416;SDS011;67715;46.170;6.140;2023-03-16T15:18:03;3.97;;;2.30;;
78416;SDS011;67715;46.170;6.140;2023-03-16T15:20:31;4.30;;;2.08;;
78416;SDS011;67715;46.170;6.140;2023-03-16T15:22:59;3.78;;;2.38;;
78416;SDS011;67715;46.170;6.140;2023-03-16T15:25:35;3.50;;;1.98;;
78416;SDS011;67715;46.170;6.140;2023-03-16T15:28:15;5.05;;;2.35;;
78416;SDS011;67715;46.170;6.140;2023-03-16T15:30:45;5.93;;;2.38;;
78416;SDS011;67715;46.170;6.140;2023-03-16T15:33:15;4.55;;;2.28;;
78416;SDS011;67715;46.170;6.140;2023-03-16T15:35:41;2.80;;;2.30;;
78416;SDS011;67715;46.170;6.140;2023-03-16T15:38:13;6.50;;;2.15;;
78416;SDS011;67715;46.170;6.140;2023-03-16T15:40:44;3.22;;;1.92;;
78416;SDS011;67715;46.170;6.140;2023-03-16T15:43:12;3.70;;;2.05;;
78416;SDS011;67715;46.170;6.140;2023-03-16T15:45:39;4.60;;;2.15;;
78416;SDS011;67715;46.170;6.140;2023-03-16T15:48:05;3.05;;;2.13;;
78416;SDS011;67715;46.170;6.140;2023-03-16T15:50:30;4.22;;;2.25;;
78416;SDS011;67715;46.170;6.140;2023-03-16T15:52:58;3.00;;;2.35;;
78416;SDS011;67715;46.170;6.140;2023-03-16T15:55:29;6.05;;;2.20;;
78416;SDS011;67715;46.170;6.140;2023-03-16T16:02:56;5.25;;;2.00;;
78416;SDS011;67715;46.170;6.140;2023-03-16T16:05:22;3.45;;;2.10;;
78416;SDS011;67715;46.170;6.140;2023-03-16T16:07:48;3.55;;;1.70;;
78416;SDS011;67715;46.170;6.140;2023-03-16T16:10:13;3.70;;;1.90;;
78416;SDS011;67715;46.170;6.140;2023-03-16T16:12:40;4.45;;;1.83;;
78416;SDS011;67715;46.170;6.140;2023-03-16T16:15:23;3.50;;;2.20;;
78416;SDS011;67715;46.170;6.140;2023-03-16T16:17:50;2.65;;;1.60;;
78416;SDS011;67715;46.170;6.140;2023-03-16T16:20:26;2.25;;;1.70;;
78416;SDS011;67715;46.170;6.140;2023-03-16T16:22:53;5.35;;;1.90;;
78416;SDS011;67715;46.170;6.140;2023-03-16T16:25:20;3.15;;;2.03;;
78416;SDS011;67715;46.170;6.140;2023-03-16T16:27:47;4.63;;;1.73;;
78416;SDS011;67715;46.170;6.140;2023-03-16T16:30:20;5.22;;;2.17;;
78416;SDS011;67715;46.170;6.140;2023-03-16T16:32:45;2.85;;;1.88;;
78416;SDS011;67715;46.170;6.140;2023-03-16T16:35:11;4.57;;;2.40;;
78416;SDS011;67715;46.170;6.140;2023-03-16T16:37:38;6.43;;;2.17;;
78416;SDS011;67715;46.170;6.140;2023-03-16T16:40:03;2.83;;;1.67;;
78416;SDS011;67715;46.170;6.140;2023-03-16T16:42:30;3.45;;;1.90;;
78416;SDS011;67715;46.170;6.140;2023-03-16T16:44:55;3.25;;;1.90;;
78416;SDS011;67715;46.170;6.140;2023-03-16T16:47:21;4.97;;;2.40;;
78416;SDS011;67715;46.170;6.140;2023-03-16T16:49:46;3.97;;;1.73;;
78416;SDS011;67715;46.170;6.140;2023-03-16T16:52:14;3.55;;;1.98;;
78416;SDS011;67715;46.170;6.140;2023-03-16T16:54:41;2.83;;;1.50;;
78416;SDS011;67715;46.170;6.140;2023-03-16T16:57:08;2.27;;;1.50;;
78416;SDS011;67715;46.170;6.140;2023-03-16T16:59:39;5.05;;;2.33;;
78416;SDS011;67715;46.170;6.140;2023-03-16T17:02:21;4.28;;;1.67;;
78416;SDS011;67715;46.170;6.140;2023-03-16T17:04:51;4.32;;;1.73;;
78416;SDS011;67715;46.170;6.140;2023-03-16T17:07:17;2.63;;;1.55;;
78416;SDS011;67715;46.170;6.140;2023-03-16T17:09:42;3.42;;;1.60;;
78416;SDS011;67715;46.170;6.140;2023-03-16T17:12:10;2.60;;;1.90;;
78416;SDS011;67715;46.170;6.140;2023-03-16T17:14:40;2.22;;;1.45;;
78416;SDS011;67715;46.170;6.140;2023-03-16T17:17:08;3.70;;;1.90;;
78416;SDS011;67715;46.170;6.140;2023-03-16T17:19:38;4.13;;;2.67;;
78416;SDS011;67715;46.170;6.140;2023-03-16T17:22:05;3.70;;;1.83;;
78416;SDS011;67715;46.170;6.140;2023-03-16T17:24:45;3.65;;;1.80;;
78416;SDS011;67715;46.170;6.140;2023-03-16T17:27:15;3.72;;;1.90;;
78416;SDS011;67715;46.170;6.140;2023-03-16T17:29:44;3.75;;;1.70;;
78416;SDS011;67715;46.170;6.140;2023-03-16T17:32:17;4.40;;;2.17;;
78416;SDS011;67715;46.170;6.140;2023-03-16T17:34:46;4.07;;;1.80;;
78416;SDS011;67715;46.170;6.140;2023-03-16T17:37:13;3.00;;;1.73;;
78416;SDS011;67715;46.170;6.140;2023-03-16T17:39:46;3.55;;;1.50;;
78416;SDS011;67715;46.170;6.140;2023-03-16T17:42:13;3.38;;;1.75;;
78416;SDS011;67715;46.170;6.140;2023-03-16T17:44:43;3.85;;;2.00;;
78416;SDS011;67715;46.170;6.140;2023-03-16T17:47:12;2.80;;;1.60;;
78416;SDS011;67715;46.170;6.140;2023-03-16T17:49:39;3.67;;;1.95;;
78416;SDS011;67715;46.170;6.140;2023-03-16T17:52:14;4.45;;;2.00;;
78416;SDS011;67715;46.170;6.140;2023-03-16T17:54:51;3.03;;;1.80;;
78416;SDS011;67715;46.170;6.140;2023-03-16T17:57:25;5.80;;;2.38;;
78416;SDS011;67715;46.170;6.140;2023-03-16T17:59:52;3.97;;;2.05;;
78416;SDS011;67715;46.170;6.140;2023-03-16T18:02:31;3.35;;;1.90;;
78416;SDS011;67715;46.170;6.140;2023-03-16T18:05:03;4.68;;;2.08;;
78416;SDS011;67715;46.170;6.140;2023-03-16T18:07:32;5.32;;;2.05;;
78416;SDS011;67715;46.170;6.140;2023-03-16T18:09:58;4.60;;;2.38;;
78416;SDS011;67715;46.170;6.140;2023-03-16T18:12:23;2.90;;;1.97;;
78416;SDS011;67715;46.170;6.140;2023-03-16T18:14:49;5.72;;;2.33;;
78416;SDS011;67715;46.170;6.140;2023-03-16T18:17:30;3.50;;;2.05;;
78416;SDS011;67715;46.170;6.140;2023-03-16T18:22:22;4.32;;;2.20;;
78416;SDS011;67715;46.170;6.140;2023-03-16T18:24:49;4.47;;;2.33;;
78416;SDS011;67715;46.170;6.140;2023-03-16T18:27:16;5.20;;;2.70;;
78416;SDS011;67715;46.170;6.140;2023-03-16T18:29:42;7.13;;;3.65;;
78416;SDS011;67715;46.170;6.140;2023-03-16T18:32:13;7.18;;;3.40;;
78416;SDS011;67715;46.170;6.140;2023-03-16T18:34:44;5.40;;;2.67;;
78416;SDS011;67715;46.170;6.140;2023-03-16T18:37:12;7.60;;;3.15;;
78416;SDS011;67715;46.170;6.140;2023-03-16T18:39:41;5.30;;;3.25;;
78416;SDS011;67715;46.170;6.140;2023-03-16T18:42:12;4.88;;;2.90;;
78416;SDS011;67715;46.170;6.140;2023-03-16T18:44:42;5.88;;;3.25;;
78416;SDS011;67715;46.170;6.140;2023-03-16T18:47:07;5.40;;;3.20;;
78416;SDS011;67715;46.170;6.140;2023-03-16T18:49:35;4.68;;;3.13;;
78416;SDS011;67715;46.170;6.140;2023-03-16T18:52:00;4.38;;;2.63;;
78416;SDS011;67715;46.170;6.140;2023-03-16T18:54:28;3.67;;;2.60;;
78416;SDS011;67715;46.170;6.140;2023-03-16T18:56:56;7.10;;;2.83;;